sensor_id;sensor_type;location;lat;lon;timestamp;P1;durP1;ratioP1;P2;durP2;ratioP2
14907;SDS011;7545;52.092;7.006;2023-07-29T00:01:08;3.30;;;2.67;;
14907;SDS011;7545;52.092;7.006;2023-07-29T00:03:33;5.80;;;1.92;;
14907;SDS011;7545;52.092;7.006;2023-07-29T00:05:59;3.45;;;2.50;;
14907;SDS011;7545;52.092;7.006;2023-07-29T00:08:25;2.80;;;2.47;;
14907;SDS011;7545;52.092;7.006;2023-07-29T00:10:50;3.25;;;2.58;;
14907;SDS011;7545;52.092;7.006;2023-07-29T00:13:16;3.88;;;2.58;;
14907;SDS011;7545;52.092;7.006;2023-07-29T00:15:41;3.22;;;2.80;;
14907;SDS011;7545;52.092;7.006;2023-07-29T00:18:07;2.45;;;2.25;;
14907;SDS011;7545;52.092;7.006;2023-07-29T00:20:32;3.33;;;2.92;;
14907;SDS011;7545;52.092;7.006;2023-07-29T00:22:58;3.00;;;2.72;;
14907;SDS011;7545;52.092;7.006;2023-07-29T00:25:25;7.07;;;3.00;;
14907;SDS011;7545;52.092;7.006;2023-07-29T00:27:51;3.45;;;2.53;;
14907;SDS011;7545;52.092;7.006;2023-07-29T00:30:16;4.07;;;3.28;;
14907;SDS011;7545;52.092;7.006;2023-07-29T00:32:42;4.00;;;3.28;;
14907;SDS011;7545;52.092;7.006;2023-07-29T00:35:08;3.38;;;2.92;;
14907;SDS011;7545;52.092;7.006;2023-07-29T00:37:33;6.57;;;3.30;;
14907;SDS011;7545;52.092;7.006;2023-07-29T00:39:59;3.47;;;2.97;;
14907;SDS011;7545;52.092;7.006;2023-07-29T00:42:24;4.38;;;2.72;;
14907;SDS011;7545;52.092;7.006;2023-07-29T00:44:50;4.10;;;2.72;;
14907;SDS011;7545;52.092;7.006;2023-07-29T00:47:16;3.35;;;2.67;;
14907;SDS011;7545;52.092;7.006;2023-07-29T00:49:43;3.35;;;2.53;;
14907;SDS011;7545;52.092;7.006;2023-07-29T00:52:09;3.42;;;2.85;;
14907;SDS011;7545;52.092;7.006;2023-07-29T00:54:37;2.78;;;2.53;;
14907;SDS011;7545;52.092;7.006;2023-07-29T00:57:04;3.22;;;2.70;;
14907;SDS011;7545;52.092;7.006;2023-07-29T00:59:30;4.00;;;2.80;;
14907;SDS011;7545;52.092;7.006;2023-07-29T01:01:57;3.20;;;2.90;;
14907;SDS011;7545;52.092;7.006;2023-07-29T01:04:23;3.42;;;2.95;;
14907;SDS011;7545;52.092;7.006;2023-07-29T01:15:14;3.65;;;2.85;;
14907;SDS011;7545;52.092;7.006;2023-07-29T01:17:49;2.92;;;2.65;;
14907;SDS011;7545;52.092;7.006;2023-07-29T01:20:19;3.33;;;2.92;;
14907;SDS011;7545;52.092;7.006;2023-07-29T01:22:45;3.85;;;2.67;;
14907;SDS011;7545;52.092;7.006;2023-07-29T01:25:12;3.22;;;2.38;;
14907;SDS011;7545;52.092;7.006;2023-07-29T01:27:38;3.65;;;2.55;;
14907;SDS011;7545;52.092;7.006;2023-07-29T01:30:04;2.70;;;2.50;;
14907;SDS011;7545;52.092;7.006;2023-07-29T01:37:37;5.90;;;2.60;;
14907;SDS011;7545;52.092;7.006;2023-07-29T01:40:04;3.20;;;2.60;;
14907;SDS011;7545;52.092;7.006;2023-07-29T01:42:31;2.83;;;2.53;;
14907;SDS011;7545;52.092;7.006;2023-07-29T01:44:57;3.13;;;2.55;;
14907;SDS011;7545;52.092;7.006;2023-07-29T01:47:23;3.33;;;2.55;;
14907;SDS011;7545;52.092;7.006;2023-07-29T01:49:48;2.63;;;2.35;;
14907;SDS011;7545;52.092;7.006;2023-07-29T01:52:14;2.83;;;2.33;;
14907;SDS011;7545;52.092;7.006;2023-07-29T01:54:40;3.85;;;2.67;;
14907;SDS011;7545;52.092;7.006;2023-07-29T01:57:05;3.40;;;3.10;;
14907;SDS011;7545;52.092;7.006;2023-07-29T01:59:31;3.22;;;2.92;;
14907;SDS011;7545;52.092;7.006;2023-07-29T02:01:56;3.08;;;2.78;;
14907;SDS011;7545;52.092;7.006;2023-07-29T02:04:22;2.90;;;2.67;;
14907;SDS011;7545;52.092;7.006;2023-07-29T02:06:47;2.95;;;2.65;;
14907;SDS011;7545;52.092;7.006;2023-07-29T02:09:13;3.42;;;2.60;;
14907;SDS011;7545;52.092;7.006;2023-07-29T02:11:38;3.90;;;3.45;;
14907;SDS011;7545;52.092;7.006;2023-07-29T02:14:04;2.90;;;2.70;;
14907;SDS011;7545;52.092;7.006;2023-07-29T02:16:29;4.63;;;2.90;;
14907;SDS011;7545;52.092;7.006;2023-07-29T02:18:57;3.33;;;3.03;;
14907;SDS011;7545;52.092;7.006;2023-07-29T02:21:23;4.20;;;2.97;;
14907;SDS011;7545;52.092;7.006;2023-07-29T02:23:48;6.28;;;3.47;;
14907;SDS011;7545;52.092;7.006;2023-07-29T02:26:14;4.68;;;3.03;;
14907;SDS011;7545;52.092;7.006;2023-07-29T02:28:41;5.18;;;3.10;;
14907;SDS011;7545;52.092;7.006;2023-07-29T02:31:23;4.32;;;3.35;;
14907;SDS011;7545;52.092;7.006;2023-07-29T02:33:49;3.38;;;2.75;;
14907;SDS011;7545;52.092;7.006;2023-07-29T02:36:15;4.80;;;3.08;;
14907;SDS011;7545;52.092;7.006;2023-07-29T02:38:41;3.75;;;2.78;;
14907;SDS011;7545;52.092;7.006;2023-07-29T02:41:07;4.63;;;3.47;;
14907;SDS011;7545;52.092;7.006;2023-07-29T02:43:34;4.75;;;3.42;;
14907;SDS011;7545;52.092;7.006;2023-07-29T02:46:01;4.53;;;3.50;;
14907;SDS011;7545;52.092;7.006;2023-07-29T02:48:27;3.42;;;3.08;;
14907;SDS011;7545;52.092;7.006;2023-07-29T02:50:53;4.15;;;3.33;;
14907;SDS011;7545;52.092;7.006;2023-07-29T02:53:19;3.83;;;3.42;;
14907;SDS011;7545;52.092;7.006;2023-07-29T02:55:44;3.97;;;3.63;;
14907;SDS011;7545;52.092;7.006;2023-07-29T02:58:10;4.00;;;3.13;;
14907;SDS011;7545;52.092;7.006;2023-07-29T03:00:36;4.25;;;3.22;;
14907;SDS011;7545;52.092;7.006;2023-07-29T03:03:01;3.67;;;3.30;;
14907;SDS011;7545;52.092;7.006;2023-07-29T03:05:27;4.55;;;3.25;;
14907;SDS011;7545;52.092;7.006;2023-07-29T03:07:53;4.00;;;3.30;;
14907;SDS011;7545;52.092;7.006;2023-07-29T03:10:19;4.03;;;3.63;;
14907;SDS011;7545;52.092;7.006;2023-07-29T03:12:45;3.95;;;3.28;;
14907;SDS011;7545;52.092;7.006;2023-07-29T03:15:11;4.07;;;3.65;;
14907;SDS011;7545;52.092;7.006;2023-07-29T03:17:37;4.15;;;3.75;;
14907;SDS011;7545;52.092;7.006;2023-07-29T03:20:03;4.55;;;3.40;;
14907;SDS011;7545;52.092;7.006;2023-07-29T03:22:28;4.40;;;3.65;;
14907;SDS011;7545;52.092;7.006;2023-07-29T03:24:54;6.28;;;3.42;;
14907;SDS011;7545;52.092;7.006;2023-07-29T03:27:20;6.03;;;4.38;;
14907;SDS011;7545;52.092;7.006;2023-07-29T03:29:45;4.20;;;3.35;;
14907;SDS011;7545;52.092;7.006;2023-07-29T03:32:11;4.13;;;3.30;;
14907;SDS011;7545;52.092;7.006;2023-07-29T03:34:37;5.10;;;3.40;;
14907;SDS011;7545;52.092;7.006;2023-07-29T03:37:03;4.15;;;2.92;;
14907;SDS011;7545;52.092;7.006;2023-07-29T03:39:29;4.82;;;3.63;;
14907;SDS011;7545;52.092;7.006;2023-07-29T03:41:54;5.15;;;3.70;;
14907;SDS011;7545;52.092;7.006;2023-07-29T03:44:20;3.92;;;3.53;;
14907;SDS011;7545;52.092;7.006;2023-07-29T03:46:45;3.92;;;3.63;;
14907;SDS011;7545;52.092;7.006;2023-07-29T03:49:11;4.20;;;3.80;;
14907;SDS011;7545;52.092;7.006;2023-07-29T03:51:37;4.38;;;3.40;;
14907;SDS011;7545;52.092;7.006;2023-07-29T03:54:02;5.32;;;3.83;;
14907;SDS011;7545;52.092;7.006;2023-07-29T03:56:28;4.45;;;3.63;;
14907;SDS011;7545;52.092;7.006;2023-07-29T03:58:56;3.55;;;3.08;;
14907;SDS011;7545;52.092;7.006;2023-07-29T04:01:28;4.53;;;3.72;;
14907;SDS011;7545;52.092;7.006;2023-07-29T04:03:54;5.03;;;4.55;;
14907;SDS011;7545;52.092;7.006;2023-07-29T04:06:19;4.13;;;3.72;;
14907;SDS011;7545;52.092;7.006;2023-07-29T04:08:45;4.50;;;4.00;;
14907;SDS011;7545;52.092;7.006;2023-07-29T04:11:11;8.02;;;5.30;;
14907;SDS011;7545;52.092;7.006;2023-07-29T04:13:37;6.20;;;4.82;;
14907;SDS011;7545;52.092;7.006;2023-07-29T04:16:03;4.82;;;4.32;;
14907;SDS011;7545;52.092;7.006;2023-07-29T04:18:29;5.00;;;4.50;;
14907;SDS011;7545;52.092;7.006;2023-07-29T04:20:55;6.43;;;4.60;;
14907;SDS011;7545;52.092;7.006;2023-07-29T04:23:20;6.68;;;4.97;;
14907;SDS011;7545;52.092;7.006;2023-07-29T04:25:46;6.55;;;4.70;;
14907;SDS011;7545;52.092;7.006;2023-07-29T04:28:12;9.90;;;4.43;;
14907;SDS011;7545;52.092;7.006;2023-07-29T04:30:37;5.68;;;4.95;;
14907;SDS011;7545;52.092;7.006;2023-07-29T04:33:03;5.30;;;4.78;;
14907;SDS011;7545;52.092;7.006;2023-07-29T04:35:28;5.20;;;4.70;;
14907;SDS011;7545;52.092;7.006;2023-07-29T04:37:54;5.60;;;5.07;;
14907;SDS011;7545;52.092;7.006;2023-07-29T04:40:19;6.10;;;4.97;;
14907;SDS011;7545;52.092;7.006;2023-07-29T04:42:45;6.53;;;5.43;;
14907;SDS011;7545;52.092;7.006;2023-07-29T04:45:11;7.72;;;6.03;;
14907;SDS011;7545;52.092;7.006;2023-07-29T04:47:36;6.57;;;4.70;;
14907;SDS011;7545;52.092;7.006;2023-07-29T04:50:02;7.88;;;5.30;;
14907;SDS011;7545;52.092;7.006;2023-07-29T04:52:28;6.28;;;5.68;;
14907;SDS011;7545;52.092;7.006;2023-07-29T04:54:53;7.30;;;5.75;;
14907;SDS011;7545;52.092;7.006;2023-07-29T04:57:19;5.38;;;4.68;;
14907;SDS011;7545;52.092;7.006;2023-07-29T04:59:44;5.82;;;5.22;;
14907;SDS011;7545;52.092;7.006;2023-07-29T05:02:10;6.05;;;5.45;;
14907;SDS011;7545;52.092;7.006;2023-07-29T05:04:36;10.30;;;5.78;;
14907;SDS011;7545;52.092;7.006;2023-07-29T05:07:01;6.78;;;5.85;;
14907;SDS011;7545;52.092;7.006;2023-07-29T05:09:27;7.28;;;5.97;;
14907;SDS011;7545;52.092;7.006;2023-07-29T05:11:53;8.55;;;6.68;;
14907;SDS011;7545;52.092;7.006;2023-07-29T05:14:18;6.75;;;6.05;;
14907;SDS011;7545;52.092;7.006;2023-07-29T05:16:44;8.35;;;7.32;;
14907;SDS011;7545;52.092;7.006;2023-07-29T05:19:10;8.25;;;7.43;;
14907;SDS011;7545;52.092;7.006;2023-07-29T05:21:37;9.07;;;7.68;;
14907;SDS011;7545;52.092;7.006;2023-07-29T05:24:03;7.80;;;7.00;;
14907;SDS011;7545;52.092;7.006;2023-07-29T05:26:29;10.05;;;7.57;;
14907;SDS011;7545;52.092;7.006;2023-07-29T05:28:54;8.80;;;7.90;;
14907;SDS011;7545;52.092;7.006;2023-07-29T05:31:20;8.68;;;7.78;;
14907;SDS011;7545;52.092;7.006;2023-07-29T05:33:47;10.45;;;7.47;;
14907;SDS011;7545;52.092;7.006;2023-07-29T05:36:13;8.63;;;7.50;;
14907;SDS011;7545;52.092;7.006;2023-07-29T05:38:39;9.18;;;7.15;;
14907;SDS011;7545;52.092;7.006;2023-07-29T05:41:04;8.40;;;6.72;;
14907;SDS011;7545;52.092;7.006;2023-07-29T05:43:30;9.02;;;6.85;;
14907;SDS011;7545;52.092;7.006;2023-07-29T05:45:56;7.18;;;6.00;;
14907;SDS011;7545;52.092;7.006;2023-07-29T05:48:21;8.60;;;6.40;;
14907;SDS011;7545;52.092;7.006;2023-07-29T05:50:47;7.43;;;5.65;;
14907;SDS011;7545;52.092;7.006;2023-07-29T05:53:13;6.53;;;5.57;;
14907;SDS011;7545;52.092;7.006;2023-07-29T05:55:39;6.55;;;5.30;;
14907;SDS011;7545;52.092;7.006;2023-07-29T05:58:05;5.95;;;5.03;;
14907;SDS011;7545;52.092;7.006;2023-07-29T06:00:31;7.97;;;5.60;;
14907;SDS011;7545;52.092;7.006;2023-07-29T06:02:56;5.53;;;4.45;;
14907;SDS011;7545;52.092;7.006;2023-07-29T06:05:22;6.32;;;3.97;;
14907;SDS011;7545;52.092;7.006;2023-07-29T06:07:47;7.40;;;4.10;;
14907;SDS011;7545;52.092;7.006;2023-07-29T06:10:14;4.57;;;3.72;;
14907;SDS011;7545;52.092;7.006;2023-07-29T06:12:44;4.20;;;3.60;;
14907;SDS011;7545;52.092;7.006;2023-07-29T06:15:10;3.80;;;3.30;;
14907;SDS011;7545;52.092;7.006;2023-07-29T06:17:36;3.60;;;2.97;;
14907;SDS011;7545;52.092;7.006;2023-07-29T06:20:03;3.45;;;2.67;;
14907;SDS011;7545;52.092;7.006;2023-07-29T06:22:29;3.00;;;2.08;;
14907;SDS011;7545;52.092;7.006;2023-07-29T06:24:54;3.05;;;2.38;;
14907;SDS011;7545;52.092;7.006;2023-07-29T06:27:20;2.78;;;2.05;;
14907;SDS011;7545;52.092;7.006;2023-07-29T06:29:46;5.53;;;2.95;;
14907;SDS011;7545;52.092;7.006;2023-07-29T06:32:11;2.25;;;1.75;;
14907;SDS011;7545;52.092;7.006;2023-07-29T06:34:37;3.17;;;1.98;;
14907;SDS011;7545;52.092;7.006;2023-07-29T06:37:02;1.75;;;1.60;;
14907;SDS011;7545;52.092;7.006;2023-07-29T06:39:28;2.92;;;1.50;;
14907;SDS011;7545;52.092;7.006;2023-07-29T06:41:53;4.53;;;1.77;;
14907;SDS011;7545;52.092;7.006;2023-07-29T06:44:19;2.03;;;1.73;;
14907;SDS011;7545;52.092;7.006;2023-07-29T06:46:44;1.60;;;1.40;;
14907;SDS011;7545;52.092;7.006;2023-07-29T06:49:10;2.05;;;1.55;;
14907;SDS011;7545;52.092;7.006;2023-07-29T06:51:36;2.70;;;1.58;;
14907;SDS011;7545;52.092;7.006;2023-07-29T06:54:02;4.38;;;1.80;;
14907;SDS011;7545;52.092;7.006;2023-07-29T06:56:28;3.55;;;2.20;;
14907;SDS011;7545;52.092;7.006;2023-07-29T06:58:53;2.47;;;1.95;;
14907;SDS011;7545;52.092;7.006;2023-07-29T07:01:19;4.13;;;2.10;;
14907;SDS011;7545;52.092;7.006;2023-07-29T07:03:44;3.00;;;2.20;;
14907;SDS011;7545;52.092;7.006;2023-07-29T07:06:10;2.83;;;2.25;;
14907;SDS011;7545;52.092;7.006;2023-07-29T07:08:36;2.60;;;2.20;;
14907;SDS011;7545;52.092;7.006;2023-07-29T07:11:01;5.40;;;2.05;;
14907;SDS011;7545;52.092;7.006;2023-07-29T07:13:27;5.03;;;2.97;;
14907;SDS011;7545;52.092;7.006;2023-07-29T07:15:56;4.93;;;2.72;;
14907;SDS011;7545;52.092;7.006;2023-07-29T07:18:21;4.45;;;2.28;;
14907;SDS011;7545;52.092;7.006;2023-07-29T07:20:51;2.92;;;2.50;;
14907;SDS011;7545;52.092;7.006;2023-07-29T07:23:17;2.53;;;2.30;;
14907;SDS011;7545;52.092;7.006;2023-07-29T07:25:43;4.03;;;2.83;;
14907;SDS011;7545;52.092;7.006;2023-07-29T07:28:09;4.55;;;2.55;;
14907;SDS011;7545;52.092;7.006;2023-07-29T07:30:35;2.53;;;2.20;;
14907;SDS011;7545;52.092;7.006;2023-07-29T07:33:04;3.75;;;2.50;;
14907;SDS011;7545;52.092;7.006;2023-07-29T07:35:29;3.55;;;2.72;;
14907;SDS011;7545;52.092;7.006;2023-07-29T07:37:55;2.65;;;2.45;;
14907;SDS011;7545;52.092;7.006;2023-07-29T07:40:20;2.63;;;2.17;;
14907;SDS011;7545;52.092;7.006;2023-07-29T07:42:46;4.90;;;2.22;;
14907;SDS011;7545;52.092;7.006;2023-07-29T07:45:12;4.75;;;2.60;;
14907;SDS011;7545;52.092;7.006;2023-07-29T07:47:37;4.30;;;2.47;;
14907;SDS011;7545;52.092;7.006;2023-07-29T07:50:03;6.00;;;2.88;;
14907;SDS011;7545;52.092;7.006;2023-07-29T07:52:29;4.63;;;2.53;;
14907;SDS011;7545;52.092;7.006;2023-07-29T07:54:55;5.20;;;2.65;;
14907;SDS011;7545;52.092;7.006;2023-07-29T07:57:21;3.35;;;2.72;;
14907;SDS011;7545;52.092;7.006;2023-07-29T07:59:47;4.00;;;2.25;;
14907;SDS011;7545;52.092;7.006;2023-07-29T08:02:12;2.78;;;2.20;;
14907;SDS011;7545;52.092;7.006;2023-07-29T08:04:38;2.92;;;2.47;;
14907;SDS011;7545;52.092;7.006;2023-07-29T08:07:03;3.65;;;2.10;;
14907;SDS011;7545;52.092;7.006;2023-07-29T08:09:29;3.65;;;2.47;;
14907;SDS011;7545;52.092;7.006;2023-07-29T08:11:55;3.28;;;2.28;;
14907;SDS011;7545;52.092;7.006;2023-07-29T08:14:20;2.88;;;2.35;;
14907;SDS011;7545;52.092;7.006;2023-07-29T08:16:46;5.50;;;3.00;;
14907;SDS011;7545;52.092;7.006;2023-07-29T08:19:11;4.45;;;2.33;;
14907;SDS011;7545;52.092;7.006;2023-07-29T08:21:37;4.57;;;3.03;;
14907;SDS011;7545;52.092;7.006;2023-07-29T08:24:03;3.42;;;2.67;;
14907;SDS011;7545;52.092;7.006;2023-07-29T08:26:29;4.15;;;2.60;;
14907;SDS011;7545;52.092;7.006;2023-07-29T08:28:54;4.55;;;2.55;;
14907;SDS011;7545;52.092;7.006;2023-07-29T08:31:20;3.33;;;2.15;;
14907;SDS011;7545;52.092;7.006;2023-07-29T08:33:46;2.47;;;2.17;;
14907;SDS011;7545;52.092;7.006;2023-07-29T08:36:11;3.60;;;2.53;;
14907;SDS011;7545;52.092;7.006;2023-07-29T08:38:37;4.40;;;2.55;;
14907;SDS011;7545;52.092;7.006;2023-07-29T08:44:06;5.93;;;2.72;;
14907;SDS011;7545;52.092;7.006;2023-07-29T08:46:32;3.83;;;2.08;;
14907;SDS011;7545;52.092;7.006;2023-07-29T08:48:58;2.95;;;2.00;;
14907;SDS011;7545;52.092;7.006;2023-07-29T08:51:24;2.10;;;1.90;;
14907;SDS011;7545;52.092;7.006;2023-07-29T08:53:51;2.47;;;1.95;;
14907;SDS011;7545;52.092;7.006;2023-07-29T08:56:18;2.20;;;1.98;;
14907;SDS011;7545;52.092;7.006;2023-07-29T08:58:43;1.83;;;1.60;;
14907;SDS011;7545;52.092;7.006;2023-07-29T09:01:10;1.98;;;1.70;;
14907;SDS011;7545;52.092;7.006;2023-07-29T09:03:36;2.05;;;1.55;;
14907;SDS011;7545;52.092;7.006;2023-07-29T09:06:02;2.47;;;1.73;;
14907;SDS011;7545;52.092;7.006;2023-07-29T09:08:28;3.28;;;1.38;;
14907;SDS011;7545;52.092;7.006;2023-07-29T09:10:54;3.90;;;1.60;;
14907;SDS011;7545;52.092;7.006;2023-07-29T09:13:21;2.22;;;1.30;;
14907;SDS011;7545;52.092;7.006;2023-07-29T09:15:47;1.50;;;1.30;;
14907;SDS011;7545;52.092;7.006;2023-07-29T09:18:17;2.03;;;1.50;;
14907;SDS011;7545;52.092;7.006;2023-07-29T09:20:45;5.78;;;1.52;;
14907;SDS011;7545;52.092;7.006;2023-07-29T09:23:12;3.00;;;1.63;;
14907;SDS011;7545;52.092;7.006;2023-07-29T09:25:38;1.50;;;1.20;;
14907;SDS011;7545;52.092;7.006;2023-07-29T09:28:09;1.70;;;1.15;;
14907;SDS011;7545;52.092;7.006;2023-07-29T09:30:36;1.95;;;1.65;;
14907;SDS011;7545;52.092;7.006;2023-07-29T09:33:05;2.33;;;1.55;;
14907;SDS011;7545;52.092;7.006;2023-07-29T09:35:32;2.38;;;1.33;;
14907;SDS011;7545;52.092;7.006;2023-07-29T09:37:59;2.50;;;1.52;;
14907;SDS011;7545;52.092;7.006;2023-07-29T09:40:25;1.92;;;1.73;;
14907;SDS011;7545;52.092;7.006;2023-07-29T09:42:51;2.42;;;1.48;;
14907;SDS011;7545;52.092;7.006;2023-07-29T09:45:25;3.63;;;1.40;;
14907;SDS011;7545;52.092;7.006;2023-07-29T09:47:56;2.22;;;1.45;;
14907;SDS011;7545;52.092;7.006;2023-07-29T09:50:23;1.92;;;1.33;;
14907;SDS011;7545;52.092;7.006;2023-07-29T09:52:50;1.58;;;1.25;;
14907;SDS011;7545;52.092;7.006;2023-07-29T09:55:17;1.58;;;1.15;;
14907;SDS011;7545;52.092;7.006;2023-07-29T09:57:44;1.25;;;1.13;;
14907;SDS011;7545;52.092;7.006;2023-07-29T10:00:10;1.50;;;1.30;;
14907;SDS011;7545;52.092;7.006;2023-07-29T10:02:40;1.20;;;1.10;;
14907;SDS011;7545;52.092;7.006;2023-07-29T10:05:07;2.17;;;1.33;;
14907;SDS011;7545;52.092;7.006;2023-07-29T10:07:36;2.60;;;1.80;;
14907;SDS011;7545;52.092;7.006;2023-07-29T10:10:03;2.40;;;1.50;;
14907;SDS011;7545;52.092;7.006;2023-07-29T10:12:31;1.40;;;1.30;;
14907;SDS011;7545;52.092;7.006;2023-07-29T10:15:02;1.55;;;1.45;;
14907;SDS011;7545;52.092;7.006;2023-07-29T10:17:29;2.13;;;1.85;;
14907;SDS011;7545;52.092;7.006;2023-07-29T10:19:56;3.85;;;1.50;;
14907;SDS011;7545;52.092;7.006;2023-07-29T10:22:25;1.55;;;1.45;;
14907;SDS011;7545;52.092;7.006;2023-07-29T10:24:53;1.85;;;1.70;;
14907;SDS011;7545;52.092;7.006;2023-07-29T10:27:24;1.40;;;1.30;;
14907;SDS011;7545;52.092;7.006;2023-07-29T10:29:52;1.60;;;1.50;;
14907;SDS011;7545;52.092;7.006;2023-07-29T10:32:20;3.25;;;1.55;;
14907;SDS011;7545;52.092;7.006;2023-07-29T10:34:51;3.67;;;1.77;;
14907;SDS011;7545;52.092;7.006;2023-07-29T10:37:16;2.22;;;1.85;;
14907;SDS011;7545;52.092;7.006;2023-07-29T10:39:51;1.73;;;1.63;;
14907;SDS011;7545;52.092;7.006;2023-07-29T10:42:18;1.67;;;1.40;;
14907;SDS011;7545;52.092;7.006;2023-07-29T10:44:47;1.73;;;1.40;;
14907;SDS011;7545;52.092;7.006;2023-07-29T10:47:27;2.05;;;1.42;;
14907;SDS011;7545;52.092;7.006;2023-07-29T10:49:57;2.00;;;1.55;;
14907;SDS011;7545;52.092;7.006;2023-07-29T10:52:37;1.45;;;1.20;;
14907;SDS011;7545;52.092;7.006;2023-07-29T10:55:22;1.80;;;1.33;;
14907;SDS011;7545;52.092;7.006;2023-07-29T10:57:48;1.20;;;1.10;;
14907;SDS011;7545;52.092;7.006;2023-07-29T11:00:15;1.50;;;1.40;;
14907;SDS011;7545;52.092;7.006;2023-07-29T11:02:41;1.50;;;1.40;;
14907;SDS011;7545;52.092;7.006;2023-07-29T11:05:07;1.15;;;0.90;;
14907;SDS011;7545;52.092;7.006;2023-07-29T11:07:44;1.95;;;1.10;;
14907;SDS011;7545;52.092;7.006;2023-07-29T11:10:13;1.67;;;1.25;;
14907;SDS011;7545;52.092;7.006;2023-07-29T11:17:46;2.25;;;1.50;;
14907;SDS011;7545;52.092;7.006;2023-07-29T11:20:14;1.33;;;1.13;;
14907;SDS011;7545;52.092;7.006;2023-07-29T11:22:41;1.60;;;1.15;;
14907;SDS011;7545;52.092;7.006;2023-07-29T11:25:08;1.50;;;1.10;;
14907;SDS011;7545;52.092;7.006;2023-07-29T11:27:35;2.10;;;1.10;;
14907;SDS011;7545;52.092;7.006;2023-07-29T11:30:05;2.92;;;1.05;;
14907;SDS011;7545;52.092;7.006;2023-07-29T11:32:33;1.17;;;0.85;;
14907;SDS011;7545;52.092;7.006;2023-07-29T11:35:08;1.67;;;1.20;;
14907;SDS011;7545;52.092;7.006;2023-07-29T11:37:39;1.27;;;1.00;;
14907;SDS011;7545;52.092;7.006;2023-07-29T11:40:06;1.10;;;1.00;;
14907;SDS011;7545;52.092;7.006;2023-07-29T11:42:35;2.75;;;1.20;;
14907;SDS011;7545;52.092;7.006;2023-07-29T11:45:02;4.15;;;1.23;;
14907;SDS011;7545;52.092;7.006;2023-07-29T11:47:30;1.65;;;1.10;;
14907;SDS011;7545;52.092;7.006;2023-07-29T11:50:00;3.42;;;1.08;;
14907;SDS011;7545;52.092;7.006;2023-07-29T11:52:27;1.02;;;0.93;;
14907;SDS011;7545;52.092;7.006;2023-07-29T11:54:53;3.67;;;1.15;;
14907;SDS011;7545;52.092;7.006;2023-07-29T11:57:19;2.47;;;1.35;;
14907;SDS011;7545;52.092;7.006;2023-07-29T11:59:46;1.52;;;1.00;;
14907;SDS011;7545;52.092;7.006;2023-07-29T12:02:15;1.65;;;1.13;;
14907;SDS011;7545;52.092;7.006;2023-07-29T12:04:43;1.42;;;1.30;;
14907;SDS011;7545;52.092;7.006;2023-07-29T12:07:09;1.23;;;1.00;;
14907;SDS011;7545;52.092;7.006;2023-07-29T12:09:35;1.00;;;0.90;;
14907;SDS011;7545;52.092;7.006;2023-07-29T12:12:04;2.92;;;1.40;;
14907;SDS011;7545;52.092;7.006;2023-07-29T12:14:31;1.30;;;1.08;;
14907;SDS011;7545;52.092;7.006;2023-07-29T12:17:01;1.30;;;1.20;;
14907;SDS011;7545;52.092;7.006;2023-07-29T12:19:38;1.48;;;1.10;;
14907;SDS011;7545;52.092;7.006;2023-07-29T12:22:05;1.35;;;1.02;;
14907;SDS011;7545;52.092;7.006;2023-07-29T12:24:33;1.85;;;1.33;;
14907;SDS011;7545;52.092;7.006;2023-07-29T12:27:01;1.20;;;1.10;;
14907;SDS011;7545;52.092;7.006;2023-07-29T12:29:26;3.47;;;1.63;;
14907;SDS011;7545;52.092;7.006;2023-07-29T12:31:56;1.50;;;1.40;;
14907;SDS011;7545;52.092;7.006;2023-07-29T12:34:24;1.02;;;0.93;;
14907;SDS011;7545;52.092;7.006;2023-07-29T12:36:51;1.48;;;1.38;;
14907;SDS011;7545;52.092;7.006;2023-07-29T12:39:19;1.30;;;1.15;;
14907;SDS011;7545;52.092;7.006;2023-07-29T12:41:50;2.25;;;1.10;;
14907;SDS011;7545;52.092;7.006;2023-07-29T12:44:17;1.50;;;0.95;;
14907;SDS011;7545;52.092;7.006;2023-07-29T12:46:43;1.77;;;1.00;;
14907;SDS011;7545;52.092;7.006;2023-07-29T12:49:08;2.22;;;1.30;;
14907;SDS011;7545;52.092;7.006;2023-07-29T12:51:34;1.15;;;1.00;;
14907;SDS011;7545;52.092;7.006;2023-07-29T12:54:01;2.53;;;1.15;;
14907;SDS011;7545;52.092;7.006;2023-07-29T12:56:28;2.47;;;1.73;;
14907;SDS011;7545;52.092;7.006;2023-07-29T12:58:54;0.80;;;0.80;;
14907;SDS011;7545;52.092;7.006;2023-07-29T13:01:20;1.08;;;0.98;;
14907;SDS011;7545;52.092;7.006;2023-07-29T13:03:45;1.67;;;1.30;;
14907;SDS011;7545;52.092;7.006;2023-07-29T13:06:12;1.00;;;0.88;;
14907;SDS011;7545;52.092;7.006;2023-07-29T13:08:38;1.85;;;1.10;;
14907;SDS011;7545;52.092;7.006;2023-07-29T13:11:03;4.07;;;1.20;;
14907;SDS011;7545;52.092;7.006;2023-07-29T13:13:29;1.33;;;1.23;;
14907;SDS011;7545;52.092;7.006;2023-07-29T13:15:56;1.83;;;1.20;;
14907;SDS011;7545;52.092;7.006;2023-07-29T13:18:22;1.95;;;1.00;;
14907;SDS011;7545;52.092;7.006;2023-07-29T13:20:47;1.30;;;0.90;;
14907;SDS011;7545;52.092;7.006;2023-07-29T13:23:13;4.03;;;1.50;;
14907;SDS011;7545;52.092;7.006;2023-07-29T13:25:39;1.42;;;1.10;;
14907;SDS011;7545;52.092;7.006;2023-07-29T13:28:05;1.10;;;1.00;;
14907;SDS011;7545;52.092;7.006;2023-07-29T13:30:30;1.45;;;1.35;;
14907;SDS011;7545;52.092;7.006;2023-07-29T13:32:56;2.05;;;1.25;;
14907;SDS011;7545;52.092;7.006;2023-07-29T13:35:22;1.48;;;1.30;;
14907;SDS011;7545;52.092;7.006;2023-07-29T13:37:47;2.40;;;1.45;;
14907;SDS011;7545;52.092;7.006;2023-07-29T13:40:13;2.88;;;1.40;;
14907;SDS011;7545;52.092;7.006;2023-07-29T13:42:38;2.33;;;1.52;;
14907;SDS011;7545;52.092;7.006;2023-07-29T13:45:04;1.98;;;1.15;;
14907;SDS011;7545;52.092;7.006;2023-07-29T13:47:30;2.67;;;1.40;;
14907;SDS011;7545;52.092;7.006;2023-07-29T13:49:56;2.40;;;1.70;;
14907;SDS011;7545;52.092;7.006;2023-07-29T13:52:21;1.42;;;1.33;;
14907;SDS011;7545;52.092;7.006;2023-07-29T13:54:47;1.58;;;1.20;;
14907;SDS011;7545;52.092;7.006;2023-07-29T13:57:12;1.88;;;1.52;;
14907;SDS011;7545;52.092;7.006;2023-07-29T13:59:38;1.42;;;1.33;;
14907;SDS011;7545;52.092;7.006;2023-07-29T14:02:07;1.58;;;1.48;;
14907;SDS011;7545;52.092;7.006;2023-07-29T14:04:33;1.85;;;1.30;;
14907;SDS011;7545;52.092;7.006;2023-07-29T14:06:58;1.65;;;1.27;;
14907;SDS011;7545;52.092;7.006;2023-07-29T14:09:25;2.38;;;1.38;;
14907;SDS011;7545;52.092;7.006;2023-07-29T14:11:51;1.35;;;1.17;;
14907;SDS011;7545;52.092;7.006;2023-07-29T14:14:17;2.38;;;1.15;;
14907;SDS011;7545;52.092;7.006;2023-07-29T14:16:42;3.03;;;1.27;;
14907;SDS011;7545;52.092;7.006;2023-07-29T14:19:08;1.80;;;1.13;;
14907;SDS011;7545;52.092;7.006;2023-07-29T14:21:33;1.45;;;1.00;;
14907;SDS011;7545;52.092;7.006;2023-07-29T14:23:59;2.88;;;1.75;;
14907;SDS011;7545;52.092;7.006;2023-07-29T14:26:25;1.95;;;1.13;;
14907;SDS011;7545;52.092;7.006;2023-07-29T14:28:51;2.08;;;1.10;;
14907;SDS011;7545;52.092;7.006;2023-07-29T14:31:17;1.75;;;0.93;;
14907;SDS011;7545;52.092;7.006;2023-07-29T14:33:43;1.55;;;0.90;;
14907;SDS011;7545;52.092;7.006;2023-07-29T14:36:09;3.80;;;1.30;;
14907;SDS011;7545;52.092;7.006;2023-07-29T14:38:35;2.15;;;1.17;;
14907;SDS011;7545;52.092;7.006;2023-07-29T14:41:01;1.33;;;1.10;;
14907;SDS011;7545;52.092;7.006;2023-07-29T14:43:27;2.05;;;0.88;;
14907;SDS011;7545;52.092;7.006;2023-07-29T14:45:53;1.60;;;0.90;;
14907;SDS011;7545;52.092;7.006;2023-07-29T14:48:19;1.10;;;1.00;;
14907;SDS011;7545;52.092;7.006;2023-07-29T14:50:44;1.90;;;1.00;;
14907;SDS011;7545;52.092;7.006;2023-07-29T14:53:10;0.70;;;0.70;;
14907;SDS011;7545;52.092;7.006;2023-07-29T14:55:36;2.25;;;0.80;;
14907;SDS011;7545;52.092;7.006;2023-07-29T14:58:02;1.20;;;0.75;;
14907;SDS011;7545;52.092;7.006;2023-07-29T15:00:28;3.00;;;1.17;;
14907;SDS011;7545;52.092;7.006;2023-07-29T15:02:54;2.28;;;1.08;;
14907;SDS011;7545;52.092;7.006;2023-07-29T15:05:20;1.02;;;0.90;;
14907;SDS011;7545;52.092;7.006;2023-07-29T15:07:45;1.77;;;0.88;;
14907;SDS011;7545;52.092;7.006;2023-07-29T15:10:13;1.35;;;0.82;;
14907;SDS011;7545;52.092;7.006;2023-07-29T15:12:39;2.60;;;1.05;;
14907;SDS011;7545;52.092;7.006;2023-07-29T15:15:05;1.23;;;1.13;;
14907;SDS011;7545;52.092;7.006;2023-07-29T15:17:31;2.83;;;1.30;;